sensor_id;sensor_type;location;lat;lon;timestamp;pressure;altitude;pressure_sealevel;temperature;humidity
64352;BME280;50680;52.626;-8.668;2022-12-07T00:03:33;102929.28;;;2.08;100.00
64352;BME280;50680;52.626;-8.668;2022-12-07T00:06:01;102940.41;;;2.04;100.00
64352;BME280;50680;52.626;-8.668;2022-12-07T00:08:30;102930.06;;;2.02;100.00
64352;BME280;50680;52.626;-8.668;2022-12-07T00:11:03;102927.47;;;2.04;100.00
64352;BME280;50680;52.626;-8.668;2022-12-07T00:13:31;102931.84;;;2.06;100.00
64352;BME280;50680;52.626;-8.668;2022-12-07T00:16:18;102925.81;;;2.06;100.00
64352;BME280;50680;52.626;-8.668;2022-12-07T00:18:45;102925.88;;;2.12;100.00
64352;BME280;50680;52.626;-8.668;2022-12-07T00:21:15;102921.56;;;2.11;100.00
64352;BME280;50680;52.626;-8.668;2022-12-07T00:23:44;102924.91;;;2.04;100.00
64352;BME280;50680;52.626;-8.668;2022-12-07T00:26:19;102883.13;;;1.72;100.00
64352;BME280;50680;52.626;-8.668;2022-12-07T00:28:55;102918.53;;;1.76;100.00
64352;BME280;50680;52.626;-8.668;2022-12-07T00:31:27;102916.63;;;1.64;100.00
64352;BME280;50680;52.626;-8.668;2022-12-07T00:33:56;102900.88;;;1.44;100.00
64352;BME280;50680;52.626;-8.668;2022-12-07T00:36:24;102911.19;;;1.42;100.00
64352;BME280;50680;52.626;-8.668;2022-12-07T00:38:54;102906.69;;;1.30;100.00
64352;BME280;50680;52.626;-8.668;2022-12-07T00:41:23;102902.19;;;1.17;100.00
64352;BME280;50680;52.626;-8.668;2022-12-07T00:43:51;102904.59;;;1.05;100.00
64352;BME280;50680;52.626;-8.668;2022-12-07T00:46:19;102904.34;;;0.89;100.00
64352;BME280;50680;52.626;-8.668;2022-12-07T00:48:47;102906.69;;;0.75;100.00
64352;BME280;50680;52.626;-8.668;2022-12-07T00:51:16;102917.63;;;0.59;100.00
64352;BME280;50680;52.626;-8.668;2022-12-07T00:53:43;102909.53;;;0.41;100.00
64352;BME280;50680;52.626;-8.668;2022-12-07T00:56:22;102913.53;;;0.25;100.00
64352;BME280;50680;52.626;-8.668;2022-12-07T00:58:51;102905.41;;;0.05;100.00
64352;BME280;50680;52.626;-8.668;2022-12-07T01:01:18;102912.31;;;0.06;100.00
64352;BME280;50680;52.626;-8.668;2022-12-07T01:03:45;102914.84;;;0.04;100.00
64352;BME280;50680;52.626;-8.668;2022-12-07T01:06:18;102908.03;;;0.08;100.00
64352;BME280;50680;52.626;-8.668;2022-12-07T01:08:45;102910.78;;;0.17;100.00
64352;BME280;50680;52.626;-8.668;2022-12-07T01:11:14;102918.69;;;0.25;100.00
64352;BME280;50680;52.626;-8.668;2022-12-07T01:13:43;102921.59;;;0.42;100.00
64352;BME280;50680;52.626;-8.668;2022-12-07T01:16:14;102897.63;;;0.49;100.00
64352;BME280;50680;52.626;-8.668;2022-12-07T01:18:41;102916.91;;;0.68;100.00
64352;BME280;50680;52.626;-8.668;2022-12-07T01:21:17;102910.13;;;0.74;100.00
64352;BME280;50680;52.626;-8.668;2022-12-07T01:23:44;102910.28;;;0.84;100.00
64352;BME280;50680;52.626;-8.668;2022-12-07T01:26:13;102911.19;;;0.87;100.00
64352;BME280;50680;52.626;-8.668;2022-12-07T01:28:41;102918.97;;;0.89;100.00
64352;BME280;50680;52.626;-8.668;2022-12-07T01:31:10;102915.53;;;0.90;100.00
64352;BME280;50680;52.626;-8.668;2022-12-07T01:33:38;102909.56;;;0.92;100.00
64352;BME280;50680;52.626;-8.668;2022-12-07T01:36:19;102912.25;;;1.00;100.00
64352;BME280;50680;52.626;-8.668;2022-12-07T01:38:51;102908.13;;;1.11;100.00
64352;BME280;50680;52.626;-8.668;2022-12-07T01:41:20;102909.16;;;1.21;100.00
64352;BME280;50680;52.626;-8.668;2022-12-07T01:44:16;102908.44;;;1.30;100.00
64352;BME280;50680;52.626;-8.668;2022-12-07T01:46:55;102902.47;;;1.36;100.00
64352;BME280;50680;52.626;-8.668;2022-12-07T01:54:42;102904.16;;;1.32;100.00
64352;BME280;50680;52.626;-8.668;2022-12-07T01:57:11;102898.09;;;1.30;100.00
64352;BME280;50680;52.626;-8.668;2022-12-07T01:59:41;102900.66;;;1.30;100.00
64352;BME280;50680;52.626;-8.668;2022-12-07T02:02:17;102902.38;;;1.29;100.00
64352;BME280;50680;52.626;-8.668;2022-12-07T02:04:45;102892.00;;;1.28;100.00
64352;BME280;50680;52.626;-8.668;2022-12-07T02:07:12;102898.03;;;1.27;100.00
64352;BME280;50680;52.626;-8.668;2022-12-07T02:09:39;102893.66;;;1.23;100.00
64352;BME280;50680;52.626;-8.668;2022-12-07T02:12:06;102887.50;;;1.13;100.00
64352;BME280;50680;52.626;-8.668;2022-12-07T02:14:33;102883.06;;;1.04;100.00
64352;BME280;50680;52.626;-8.668;2022-12-07T02:20:19;102898.38;;;0.92;100.00
64352;BME280;50680;52.626;-8.668;2022-12-07T02:31:11;102894.41;;;0.61;100.00
64352;BME280;50680;52.626;-8.668;2022-12-07T02:33:45;102894.19;;;0.50;100.00
64352;BME280;50680;52.626;-8.668;2022-12-07T02:36:29;102893.97;;;0.37;100.00
64352;BME280;50680;52.626;-8.668;2022-12-07T02:39:06;102892.81;;;0.20;100.00
64352;BME280;50680;52.626;-8.668;2022-12-07T02:41:58;102895.09;;;0.05;100.00
64352;BME280;50680;52.626;-8.668;2022-12-07T02:44:28;102896.50;;;-0.11;100.00
64352;BME280;50680;52.626;-8.668;2022-12-07T02:47:03;102887.53;;;-0.29;100.00
64352;BME280;50680;52.626;-8.668;2022-12-07T02:49:32;102875.13;;;-0.48;100.00
64352;BME280;50680;52.626;-8.668;2022-12-07T02:52:00;102884.41;;;-0.55;100.00
64352;BME280;50680;52.626;-8.668;2022-12-07T02:54:26;102882.50;;;-0.64;100.00
64352;BME280;50680;52.626;-8.668;2022-12-07T03:13:11;102874.75;;;-0.65;100.00
64352;BME280;50680;52.626;-8.668;2022-12-07T03:18:08;102870.34;;;-0.71;100.00
64352;BME280;50680;52.626;-8.668;2022-12-07T03:20:38;102876.41;;;-0.67;100.00
64352;BME280;50680;52.626;-8.668;2022-12-07T03:23:07;102874.75;;;-0.65;100.00
64352;BME280;50680;52.626;-8.668;2022-12-07T03:25:45;102869.50;;;-0.68;100.00
64352;BME280;50680;52.626;-8.668;2022-12-07T03:28:16;102869.25;;;-0.81;100.00
64352;BME280;50680;52.626;-8.668;2022-12-07T03:31:08;102871.38;;;-0.99;100.00
64352;BME280;50680;52.626;-8.668;2022-12-07T03:33:40;102867.53;;;-1.17;100.00
64352;BME280;50680;52.626;-8.668;2022-12-07T03:38:58;102872.31;;;-1.32;100.00
64352;BME280;50680;52.626;-8.668;2022-12-07T03:41:31;102861.97;;;-1.34;100.00
64352;BME280;50680;52.626;-8.668;2022-12-07T03:44:00;102860.31;;;-1.33;100.00
64352;BME280;50680;52.626;-8.668;2022-12-07T03:49:25;102864.03;;;-1.55;100.00
64352;BME280;50680;52.626;-8.668;2022-12-07T03:54:42;102863.84;;;-1.61;100.00
64352;BME280;50680;52.626;-8.668;2022-12-07T03:57:12;102867.41;;;-1.56;100.00
64352;BME280;50680;52.626;-8.668;2022-12-07T03:59:39;102863.13;;;-1.57;100.00
64352;BME280;50680;52.626;-8.668;2022-12-07T04:02:07;102864.56;;;-1.67;100.00
64352;BME280;50680;52.626;-8.668;2022-12-07T04:04:34;102858.25;;;-1.78;100.00
64352;BME280;50680;52.626;-8.668;2022-12-07T04:07:01;102854.56;;;-1.90;100.00
64352;BME280;50680;52.626;-8.668;2022-12-07T04:09:28;102845.75;;;-1.98;100.00
64352;BME280;50680;52.626;-8.668;2022-12-07T04:11:55;102849.78;;;-2.08;100.00
64352;BME280;50680;52.626;-8.668;2022-12-07T04:14:22;102848.72;;;-2.16;100.00
64352;BME280;50680;52.626;-8.668;2022-12-07T04:16:51;102843.34;;;-2.23;100.00
64352;BME280;50680;52.626;-8.668;2022-12-07T04:19:20;102837.94;;;-2.33;100.00
64352;BME280;50680;52.626;-8.668;2022-12-07T04:21:47;102834.56;;;-2.32;100.00
64352;BME280;50680;52.626;-8.668;2022-12-07T04:24:15;102836.19;;;-2.34;100.00
64352;BME280;50680;52.626;-8.668;2022-12-07T04:26:43;102847.22;;;-2.38;100.00
64352;BME280;50680;52.626;-8.668;2022-12-07T04:29:10;102850.66;;;-2.37;100.00
64352;BME280;50680;52.626;-8.668;2022-12-07T04:31:37;102847.50;;;-1.97;100.00
64352;BME280;50680;52.626;-8.668;2022-12-07T04:34:06;102851.41;;;-1.79;100.00
64352;BME280;50680;52.626;-8.668;2022-12-07T04:36:33;102845.59;;;-1.72;100.00
64352;BME280;50680;52.626;-8.668;2022-12-07T04:39:01;102834.38;;;-1.74;100.00
64352;BME280;50680;52.626;-8.668;2022-12-07T04:41:28;102837.78;;;-1.75;100.00
64352;BME280;50680;52.626;-8.668;2022-12-07T04:44:00;102840.31;;;-1.77;100.00
64352;BME280;50680;52.626;-8.668;2022-12-07T04:46:29;102839.41;;;-1.79;100.00
64352;BME280;50680;52.626;-8.668;2022-12-07T04:48:57;102841.03;;;-1.82;100.00
64352;BME280;50680;52.626;-8.668;2022-12-07T04:51:26;102841.75;;;-1.88;100.00
64352;BME280;50680;52.626;-8.668;2022-12-07T04:53:55;102833.03;;;-1.93;100.00
64352;BME280;50680;52.626;-8.668;2022-12-07T04:56:23;102837.28;;;-1.95;100.00
64352;BME280;50680;52.626;-8.668;2022-12-07T04:58:51;102808.66;;;-2.08;100.00
64352;BME280;50680;52.626;-8.668;2022-12-07T05:01:19;102811.25;;;-2.06;100.00
64352;BME280;50680;52.626;-8.668;2022-12-07T05:03:47;102831.38;;;-1.91;100.00
64352;BME280;50680;52.626;-8.668;2022-12-07T05:06:14;102836.59;;;-1.88;100.00
64352;BME280;50680;52.626;-8.668;2022-12-07T05:08:42;102831.47;;;-1.88;100.00
64352;BME280;50680;52.626;-8.668;2022-12-07T05:11:10;102837.47;;;-1.87;100.00
64352;BME280;50680;52.626;-8.668;2022-12-07T05:13:56;102833.97;;;-1.90;100.00
64352;BME280;50680;52.626;-8.668;2022-12-07T05:16:23;102842.41;;;-1.95;100.00
64352;BME280;50680;52.626;-8.668;2022-12-07T05:18:50;102836.19;;;-2.03;100.00
64352;BME280;50680;52.626;-8.668;2022-12-07T05:21:17;102832.47;;;-2.13;100.00
64352;BME280;50680;52.626;-8.668;2022-12-07T05:23:43;102821.91;;;-2.24;100.00
64352;BME280;50680;52.626;-8.668;2022-12-07T05:26:10;102833.06;;;-2.23;100.00
64352;BME280;50680;52.626;-8.668;2022-12-07T05:28:37;102836.56;;;-2.21;100.00
64352;BME280;50680;52.626;-8.668;2022-12-07T05:31:04;102833.31;;;-2.14;100.00
64352;BME280;50680;52.626;-8.668;2022-12-07T05:33:31;102827.56;;;-2.05;100.00
64352;BME280;50680;52.626;-8.668;2022-12-07T05:35:58;102820.00;;;-1.99;100.00
64352;BME280;50680;52.626;-8.668;2022-12-07T05:38:25;102816.75;;;-1.94;100.00
64352;BME280;50680;52.626;-8.668;2022-12-07T05:40:51;102816.03;;;-1.88;100.00
64352;BME280;50680;52.626;-8.668;2022-12-07T05:43:18;102817.94;;;-1.81;100.00
64352;BME280;50680;52.626;-8.668;2022-12-07T05:45:45;102817.19;;;-1.75;100.00
64352;BME280;50680;52.626;-8.668;2022-12-07T05:48:12;102813.09;;;-1.68;100.00
64352;BME280;50680;52.626;-8.668;2022-12-07T05:50:38;102820.97;;;-1.62;100.00
64352;BME280;50680;52.626;-8.668;2022-12-07T05:53:05;102827.97;;;-1.57;100.00
64352;BME280;50680;52.626;-8.668;2022-12-07T05:55:32;102824.63;;;-1.53;100.00
64352;BME280;50680;52.626;-8.668;2022-12-07T05:57:59;102811.84;;;-1.49;100.00
64352;BME280;50680;52.626;-8.668;2022-12-07T06:00:44;102812.78;;;-1.46;100.00
64352;BME280;50680;52.626;-8.668;2022-12-07T06:03:16;102819.72;;;-1.43;100.00
64352;BME280;50680;52.626;-8.668;2022-12-07T06:05:43;102810.34;;;-1.41;100.00
64352;BME280;50680;52.626;-8.668;2022-12-07T06:08:10;102809.50;;;-1.40;100.00
64352;BME280;50680;52.626;-8.668;2022-12-07T06:10:37;102808.66;;;-1.39;100.00
64352;BME280;50680;52.626;-8.668;2022-12-07T06:13:04;102806.97;;;-1.39;100.00
64352;BME280;50680;52.626;-8.668;2022-12-07T06:15:30;102817.25;;;-1.39;100.00
64352;BME280;50680;52.626;-8.668;2022-12-07T06:17:57;102802.69;;;-1.38;100.00
64352;BME280;50680;52.626;-8.668;2022-12-07T06:20:24;102806.09;;;-1.39;100.00
64352;BME280;50680;52.626;-8.668;2022-12-07T06:22:51;102811.16;;;-1.42;100.00
64352;BME280;50680;52.626;-8.668;2022-12-07T06:25:17;102805.00;;;-1.49;100.00
64352;BME280;50680;52.626;-8.668;2022-12-07T06:27:44;102798.84;;;-1.56;100.00
64352;BME280;50680;52.626;-8.668;2022-12-07T06:30:11;102791.88;;;-1.60;100.00
64352;BME280;50680;52.626;-8.668;2022-12-07T06:32:38;102787.47;;;-1.65;100.00
64352;BME280;50680;52.626;-8.668;2022-12-07T06:35:05;102791.66;;;-1.69;100.00
64352;BME280;50680;52.626;-8.668;2022-12-07T06:37:32;102803.63;;;-1.71;100.00
64352;BME280;50680;52.626;-8.668;2022-12-07T06:39:58;102798.38;;;-1.74;100.00
64352;BME280;50680;52.626;-8.668;2022-12-07T06:42:26;102790.63;;;-1.76;100.00
64352;BME280;50680;52.626;-8.668;2022-12-07T06:44:53;102790.59;;;-1.77;100.00
64352;BME280;50680;52.626;-8.668;2022-12-07T06:47:20;102782.88;;;-1.77;100.00
64352;BME280;50680;52.626;-8.668;2022-12-07T06:50:07;102787.09;;;-1.79;100.00
64352;BME280;50680;52.626;-8.668;2022-12-07T06:52:34;102782.78;;;-1.80;100.00
64352;BME280;50680;52.626;-8.668;2022-12-07T06:55:01;102783.56;;;-1.84;100.00
64352;BME280;50680;52.626;-8.668;2022-12-07T06:57:27;102783.31;;;-1.94;100.00
64352;BME280;50680;52.626;-8.668;2022-12-07T06:59:54;102784.16;;;-1.95;100.00
64352;BME280;50680;52.626;-8.668;2022-12-07T07:02:21;102780.59;;;-2.00;100.00
64352;BME280;50680;52.626;-8.668;2022-12-07T07:04:48;102782.16;;;-2.05;100.00
64352;BME280;50680;52.626;-8.668;2022-12-07T07:07:14;102793.06;;;-2.14;100.00
64352;BME280;50680;52.626;-8.668;2022-12-07T07:09:41;102785.16;;;-2.21;100.00
64352;BME280;50680;52.626;-8.668;2022-12-07T07:12:08;102789.22;;;-2.30;100.00
64352;BME280;50680;52.626;-8.668;2022-12-07T07:14:35;102784.75;;;-2.37;100.00
64352;BME280;50680;52.626;-8.668;2022-12-07T07:17:02;102786.28;;;-2.43;100.00
64352;BME280;50680;52.626;-8.668;2022-12-07T07:19:29;102786.19;;;-2.47;100.00
64352;BME280;50680;52.626;-8.668;2022-12-07T07:21:56;102778.28;;;-2.54;100.00
64352;BME280;50680;52.626;-8.668;2022-12-07T07:24:23;102785.78;;;-2.60;100.00
64352;BME280;50680;52.626;-8.668;2022-12-07T07:26:50;102783.00;;;-2.68;100.00
64352;BME280;50680;52.626;-8.668;2022-12-07T07:29:16;102785.44;;;-2.73;100.00
64352;BME280;50680;52.626;-8.668;2022-12-07T07:31:43;102791.44;;;-2.72;100.00
64352;BME280;50680;52.626;-8.668;2022-12-07T07:34:10;102790.47;;;-2.76;100.00
64352;BME280;50680;52.626;-8.668;2022-12-07T07:36:37;102790.31;;;-2.80;100.00
64352;BME280;50680;52.626;-8.668;2022-12-07T07:39:04;102784.13;;;-2.89;100.00
64352;BME280;50680;52.626;-8.668;2022-12-07T07:41:31;102788.16;;;-2.97;100.00
64352;BME280;50680;52.626;-8.668;2022-12-07T07:43:58;102796.59;;;-2.99;100.00
64352;BME280;50680;52.626;-8.668;2022-12-07T07:46:25;102800.03;;;-3.00;100.00
64352;BME280;50680;52.626;-8.668;2022-12-07T07:48:52;102793.13;;;-3.02;100.00
64352;BME280;50680;52.626;-8.668;2022-12-07T07:51:18;102785.22;;;-3.09;100.00
64352;BME280;50680;52.626;-8.668;2022-12-07T07:53:45;102800.03;;;-3.00;100.00
64352;BME280;50680;52.626;-8.668;2022-12-07T07:56:13;102800.97;;;-2.97;100.00
64352;BME280;50680;52.626;-8.668;2022-12-07T07:58:39;102808.84;;;-2.92;100.00
64352;BME280;50680;52.626;-8.668;2022-12-07T08:01:06;102811.72;;;-2.81;100.00
64352;BME280;50680;52.626;-8.668;2022-12-07T08:03:34;102820.81;;;-2.62;100.00
64352;BME280;50680;52.626;-8.668;2022-12-07T08:06:04;102819.22;;;-2.59;100.00
64352;BME280;50680;52.626;-8.668;2022-12-07T08:08:31;102826.97;;;-2.57;100.00
64352;BME280;50680;52.626;-8.668;2022-12-07T08:10:58;102822.66;;;-2.58;100.00
64352;BME280;50680;52.626;-8.668;2022-12-07T08:13:28;102819.16;;;-2.60;100.00
64352;BME280;50680;52.626;-8.668;2022-12-07T08:15:57;102816.56;;;-2.62;100.00
64352;BME280;50680;52.626;-8.668;2022-12-07T08:18:24;102807.88;;;-2.66;100.00
64352;BME280;50680;52.626;-8.668;2022-12-07T08:20:51;102811.22;;;-2.70;100.00
64352;BME280;50680;52.626;-8.668;2022-12-07T08:23:18;102790.13;;;-2.88;100.00
64352;BME280;50680;52.626;-8.668;2022-12-07T08:25:44;102812.72;;;-2.76;100.00
64352;BME280;50680;52.626;-8.668;2022-12-07T08:28:11;102816.16;;;-2.76;100.00
64352;BME280;50680;52.626;-8.668;2022-12-07T08:30:38;102805.88;;;-2.76;100.00
64352;BME280;50680;52.626;-8.668;2022-12-07T08:33:05;102805.88;;;-2.76;100.00
64352;BME280;50680;52.626;-8.668;2022-12-07T08:35:33;102807.63;;;-2.75;100.00
64352;BME280;50680;52.626;-8.668;2022-12-07T08:38:00;102793.94;;;-2.74;100.00
64352;BME280;50680;52.626;-8.668;2022-12-07T08:40:29;102807.84;;;-2.67;100.00
64352;BME280;50680;52.626;-8.668;2022-12-07T08:42:56;102801.16;;;-2.62;100.00
64352;BME280;50680;52.626;-8.668;2022-12-07T08:45:23;102804.56;;;-2.61;100.00
64352;BME280;50680;52.626;-8.668;2022-12-07T08:47:55;102801.19;;;-2.60;100.00
64352;BME280;50680;52.626;-8.668;2022-12-07T08:50:24;102802.84;;;-2.62;100.00
64352;BME280;50680;52.626;-8.668;2022-12-07T08:52:54;102802.06;;;-2.60;100.00
64352;BME280;50680;52.626;-8.668;2022-12-07T08:55:21;102796.16;;;-2.57;100.00
64352;BME280;50680;52.626;-8.668;2022-12-07T08:57:48;102802.25;;;-2.54;100.00
64352;BME280;50680;52.626;-8.668;2022-12-07T09:00:16;102795.34;;;-2.55;100.00
64352;BME280;50680;52.626;-8.668;2022-12-07T09:02:44;102782.56;;;-2.53;100.00
64352;BME280;50680;52.626;-8.668;2022-12-07T09:05:12;102793.94;;;-2.45;100.00
64352;BME280;50680;52.626;-8.668;2022-12-07T09:07:44;102797.41;;;-2.43;100.00
64352;BME280;50680;52.626;-8.668;2022-12-07T09:10:12;102788.78;;;-2.45;100.00
64352;BME280;50680;52.626;-8.668;2022-12-07T09:12:39;102801.72;;;-2.42;100.00
64352;BME280;50680;52.626;-8.668;2022-12-07T09:15:06;102794.94;;;-2.40;100.00
64352;BME280;50680;52.626;-8.668;2022-12-07T09:17:35;102800.97;;;-2.38;100.00
64352;BME280;50680;52.626;-8.668;2022-12-07T09:20:04;102787.28;;;-2.38;100.00
64352;BME280;50680;52.626;-8.668;2022-12-07T09:22:32;102788.03;;;-2.41;100.00
64352;BME280;50680;52.626;-8.668;2022-12-07T09:25:00;102789.59;;;-2.46;100.00
64352;BME280;50680;52.626;-8.668;2022-12-07T09:27:27;102783.41;;;-2.53;100.00
64352;BME280;50680;52.626;-8.668;2022-12-07T09:29:54;102792.13;;;-2.48;100.00
64352;BME280;50680;52.626;-8.668;2022-12-07T09:32:21;102793.97;;;-2.43;100.00
64352;BME280;50680;52.626;-8.668;2022-12-07T09:34:48;102800.16;;;-2.37;100.00
64352;BME280;50680;52.626;-8.668;2022-12-07T09:37:15;102797.78;;;-2.29;100.00
64352;BME280;50680;52.626;-8.668;2022-12-07T09:39:42;102799.66;;;-2.23;100.00
64352;BME280;50680;52.626;-8.668;2022-12-07T09:42:37;102800.81;;;-2.12;100.00
64352;BME280;50680;52.626;-8.668;2022-12-07T09:45:10;102794.34;;;-1.98;100.00
64352;BME280;50680;52.626;-8.668;2022-12-07T09:47:38;102798.06;;;-1.86;100.00
64352;BME280;50680;52.626;-8.668;2022-12-07T09:50:15;102799.13;;;-1.78;100.00
64352;BME280;50680;52.626;-8.668;2022-12-07T09:52:44;102800.22;;;-1.68;100.00
64352;BME280;50680;52.626;-8.668;2022-12-07T09:55:15;102802.94;;;-1.64;100.00
64352;BME280;50680;52.626;-8.668;2022-12-07T09:57:42;102808.16;;;-1.59;100.00
64352;BME280;50680;52.626;-8.668;2022-12-07T10:00:17;102804.00;;;-1.54;100.00
64352;BME280;50680;52.626;-8.668;2022-12-07T10:02:50;102800.78;;;-1.45;100.00
64352;BME280;50680;52.626;-8.668;2022-12-07T10:05:24;102810.56;;;-1.32;100.00
64352;BME280;50680;52.626;-8.668;2022-12-07T10:07:52;102808.25;;;-1.20;100.00
64352;BME280;50680;52.626;-8.668;2022-12-07T10:10:23;102800.72;;;-1.12;100.00
64352;BME280;50680;52.626;-8.668;2022-12-07T10:15:42;102801.91;;;-0.98;100.00
64352;BME280;50680;52.626;-8.668;2022-12-07T10:18:20;102802.94;;;-0.89;100.00
64352;BME280;50680;52.626;-8.668;2022-12-07T10:20:48;102799.66;;;-0.82;100.00
64352;BME280;50680;52.626;-8.668;2022-12-07T10:23:17;102799.81;;;-0.76;100.00
64352;BME280;50680;52.626;-8.668;2022-12-07T10:25:44;102802.53;;;-0.68;100.00
64352;BME280;50680;52.626;-8.668;2022-12-07T10:28:16;102789.69;;;-0.67;100.00
64352;BME280;50680;52.626;-8.668;2022-12-07T10:30:53;102793.31;;;-0.59;100.00
64352;BME280;50680;52.626;-8.668;2022-12-07T10:33:37;102787.28;;;-0.58;100.00
64352;BME280;50680;52.626;-8.668;2022-12-07T10:41:19;102752.25;;;-0.49;100.00
64352;BME280;50680;52.626;-8.668;2022-12-07T10:43:48;102762.00;;;-0.34;100.00
64352;BME280;50680;52.626;-8.668;2022-12-07T10:57:06;102748.53;;;-0.18;100.00
64352;BME280;50680;52.626;-8.668;2022-12-07T10:59:48;102748.59;;;-0.15;100.00
64352;BME280;50680;52.626;-8.668;2022-12-07T11:05:26;102752.19;;;-0.07;100.00
64352;BME280;50680;52.626;-8.668;2022-12-07T11:08:13;102733.28;;;-0.06;100.00
64352;BME280;50680;52.626;-8.668;2022-12-07T11:10:53;102735.19;;;0.05;100.00
64352;BME280;50680;52.626;-8.668;2022-12-07T11:16:34;102733.69;;;0.17;100.00
64352;BME280;50680;52.626;-8.668;2022-12-07T11:22:18;102726.22;;;0.36;100.00
64352;BME280;50680;52.626;-8.668;2022-12-07T11:30:23;102711.97;;;0.61;100.00
64352;BME280;50680;52.626;-8.668;2022-12-07T11:33:08;102718.13;;;0.71;100.00
64352;BME280;50680;52.626;-8.668;2022-12-07T11:35:48;102710.56;;;0.82;100.00
64352;BME280;50680;52.626;-8.668;2022-12-07T11:38:26;102710.63;;;0.89;100.00
64352;BME280;50680;52.626;-8.668;2022-12-07T11:41:01;102708.19;;;0.99;100.00
64352;BME280;50680;52.626;-8.668;2022-12-07T11:43:56;102707.44;;;1.10;100.00
64352;BME280;50680;52.626;-8.668;2022-12-07T11:46:29;102699.00;;;1.24;100.00
64352;BME280;50680;52.626;-8.668;2022-12-07T11:49:16;102705.19;;;1.38;100.00
64352;BME280;50680;52.626;-8.668;2022-12-07T11:51:48;102698.47;;;1.56;100.00
64352;BME280;50680;52.626;-8.668;2022-12-07T11:54:18;102693.41;;;1.63;100.00
64352;BME280;50680;52.626;-8.668;2022-12-07T11:56:50;102688.41;;;1.82;100.00
64352;BME280;50680;52.626;-8.668;2022-12-07T11:59:28;102685.06;;;1.95;100.00
64352;BME280;50680;52.626;-8.668;2022-12-07T12:02:09;102688.56;;;2.03;100.00
64352;BME280;50680;52.626;-8.668;2022-12-07T12:07:23;102689.56;;;2.19;100.00
64352;BME280;50680;52.626;-8.668;2022-12-07T12:10:20;102691.34;;;2.23;100.00
64352;BME280;50680;52.626;-8.668;2022-12-07T12:13:19;102686.19;;;2.31;100.00
64352;BME280;50680;52.626;-8.668;2022-12-07T12:21:29;102680.31;;;2.55;100.00
64352;BME280;50680;52.626;-8.668;2022-12-07T12:24:04;102676.06;;;2.65;100.00
64352;BME280;50680;52.626;-8.668;2022-12-07T12:26:33;102664.00;;;2.75;100.00
64352;BME280;50680;52.626;-8.668;2022-12-07T12:29:33;102661.41;;;2.76;100.00
64352;BME280;50680;52.626;-8.668;2022-12-07T12:32:20;102655.44;;;2.90;100.00
64352;BME280;50680;52.626;-8.668;2022-12-07T12:35:02;102650.28;;;2.99;100.00
64352;BME280;50680;52.626;-8.668;2022-12-07T12:37:47;102646.84;;;3.08;100.00
64352;BME280;50680;52.626;-8.668;2022-12-07T12:42:48;102628.75;;;3.25;100.00
64352;BME280;50680;52.626;-8.668;2022-12-07T12:45:29;102626.19;;;3.32;100.00
64352;BME280;50680;52.626;-8.668;2022-12-07T13:00:46;102610.66;;;3.57;100.00
64352;BME280;50680;52.626;-8.668;2022-12-07T13:03:34;102602.00;;;3.61;100.00
64352;BME280;50680;52.626;-8.668;2022-12-07T13:06:20;102602.88;;;3.71;100.00
64352;BME280;50680;52.626;-8.668;2022-12-07T13:08:59;102597.66;;;3.79;100.00
64352;BME280;50680;52.626;-8.668;2022-12-07T13:11:30;102595.97;;;3.74;100.00
64352;BME280;50680;52.626;-8.668;2022-12-07T13:17:03;102587.31;;;3.86;100.00
64352;BME280;50680;52.626;-8.668;2022-12-07T13:25:07;102584.69;;;3.94;100.00
64352;BME280;50680;52.626;-8.668;2022-12-07T13:27:37;102586.44;;;3.98;100.00
64352;BME280;50680;52.626;-8.668;2022-12-07T13:30:24;102568.22;;;4.04;100.00
64352;BME280;50680;52.626;-8.668;2022-12-07T13:32:53;102569.94;;;4.18;100.00
64352;BME280;50680;52.626;-8.668;2022-12-07T13:35:35;102569.91;;;4.27;100.00
64352;BME280;50680;52.626;-8.668;2022-12-07T13:38:13;102554.31;;;4.31;100.00
64352;BME280;50680;52.626;-8.668;2022-12-07T13:40:42;102546.47;;;4.39;100.00
64352;BME280;50680;52.626;-8.668;2022-12-07T13:43:25;102547.31;;;4.47;100.00
64352;BME280;50680;52.626;-8.668;2022-12-07T13:45:58;102552.50;;;4.55;100.00
64352;BME280;50680;52.626;-8.668;2022-12-07T13:51:03;102554.19;;;4.56;100.00
64352;BME280;50680;52.626;-8.668;2022-12-07T13:53:30;102546.38;;;4.64;100.00
64352;BME280;50680;52.626;-8.668;2022-12-07T13:55:58;102549.78;;;4.72;100.00
64352;BME280;50680;52.626;-8.668;2022-12-07T13:58:30;102542.00;;;4.72;100.00
64352;BME280;50680;52.626;-8.668;2022-12-07T14:00:58;102538.53;;;4.70;100.00
64352;BME280;50680;52.626;-8.668;2022-12-07T14:03:34;102527.22;;;4.80;100.00
64352;BME280;50680;52.626;-8.668;2022-12-07T14:06:18;102530.69;;;4.79;100.00
64352;BME280;50680;52.626;-8.668;2022-12-07T14:08:46;102528.91;;;4.84;100.00
64352;BME280;50680;52.626;-8.668;2022-12-07T14:11:18;102524.63;;;4.83;100.00
64352;BME280;50680;52.626;-8.668;2022-12-07T14:18:46;102520.28;;;4.82;100.00
64352;BME280;50680;52.626;-8.668;2022-12-07T14:23:40;102502.00;;;4.95;100.00
64352;BME280;50680;52.626;-8.668;2022-12-07T14:26:14;102501.25;;;4.80;100.00
64352;BME280;50680;52.626;-8.668;2022-12-07T14:28:42;102508.09;;;4.94;100.00
64352;BME280;50680;52.626;-8.668;2022-12-07T14:31:17;102497.69;;;4.94;100.00
64352;BME280;50680;52.626;-8.668;2022-12-07T14:33:59;102493.31;;;4.99;100.00
64352;BME280;50680;52.626;-8.668;2022-12-07T14:36:25;102493.31;;;5.02;100.00
64352;BME280;50680;52.626;-8.668;2022-12-07T14:38:52;102484.63;;;5.01;100.00
64352;BME280;50680;52.626;-8.668;2022-12-07T14:41:22;102480.25;;;5.08;100.00
64352;BME280;50680;52.626;-8.668;2022-12-07T14:44:12;102476.78;;;5.11;100.00
64352;BME280;50680;52.626;-8.668;2022-12-07T14:46:59;102473.28;;;5.13;100.00
64352;BME280;50680;52.626;-8.668;2022-12-07T14:49:46;102462.13;;;5.00;100.00
64352;BME280;50680;52.626;-8.668;2022-12-07T14:52:32;102469.94;;;4.99;100.00
64352;BME280;50680;52.626;-8.668;2022-12-07T14:55:27;102447.41;;;4.98;100.00